createdAt,value
2022-11-16T00:01:42.461Z,100464.06
2022-11-16T00:04:09.808Z,100466.16
2022-11-16T00:06:36.418Z,100458.25
2022-11-16T00:09:22.402Z,100457.16
2022-11-16T00:11:51.345Z,100462.59
2022-11-16T00:14:19.832Z,100466.16
2022-11-16T00:16:46.434Z,100458.44
2022-11-16T00:19:14.440Z,100460.13
2022-11-16T00:21:41.213Z,100455.13
2022-11-16T00:24:07.816Z,100450.13
2022-11-16T00:26:34.449Z,100445.75
2022-11-16T00:29:01.064Z,100453.88
2022-11-16T00:31:27.693Z,100452.22
2022-11-16T00:33:54.265Z,100444.94
2022-11-16T00:36:20.838Z,100454.53
2022-11-16T00:38:47.934Z,100453.94
2022-11-16T00:41:14.557Z,100451.84
2022-11-16T00:43:41.303Z,100444.34
2022-11-16T00:46:09.307Z,100451.81
2022-11-16T00:48:36.176Z,100451.19
2022-11-16T00:51:02.875Z,100451.44
2022-11-16T00:53:29.445Z,100445.81
2022-11-16T00:55:56.052Z,100448.50
2022-11-16T00:58:23.066Z,100439.31
2022-11-16T01:00:49.854Z,100436.44
2022-11-16T01:03:16.524Z,100435.19
2022-11-16T01:05:43.150Z,100435.19
2022-11-16T01:08:09.810Z,100425.59
2022-11-16T01:10:39.093Z,100429.31
2022-11-16T01:13:05.701Z,100429.34
2022-11-16T01:15:32.372Z,100418.72
2022-11-16T01:17:58.955Z,100426.81
2022-11-16T01:20:28.170Z,100419.34
2022-11-16T01:22:55.351Z,100418.09
2022-11-16T01:25:22.260Z,100417.25
2022-11-16T01:27:48.915Z,100423.72
2022-11-16T01:30:16.411Z,100411.41
2022-11-16T01:32:43.152Z,100417.88
2022-11-16T01:35:14.469Z,100414.75
2022-11-16T01:37:41.041Z,100413.06
2022-11-16T01:40:08.102Z,100406.19
2022-11-16T01:42:34.708Z,100405.16
2022-11-16T01:45:11.840Z,100411.00
2022-11-16T01:47:38.415Z,100413.47
2022-11-16T01:50:14.555Z,100410.56
2022-11-16T01:52:51.482Z,100407.25
2022-11-16T01:55:18.121Z,100403.47
2022-11-16T01:58:23.910Z,100407.03
2022-11-16T02:00:50.755Z,100404.94
2022-11-16T02:03:19.456Z,100399.97
2022-11-16T02:06:15.425Z,100389.28
2022-11-16T02:09:26.441Z,100398.28
2022-11-16T02:12:25.382Z,100396.81
2022-11-16T02:15:07.063Z,100401.00
2022-11-16T02:18:06.326Z,100400.34
2022-11-16T02:20:53.979Z,100381.38
2022-11-16T02:23:51.444Z,100383.00
2022-11-16T02:26:39.838Z,100386.72
2022-11-16T02:29:44.946Z,100383.41
2022-11-16T02:32:21.355Z,100380.03
2022-11-16T02:34:57.470Z,100377.94
2022-11-16T02:37:26.315Z,100369.19
2022-11-16T02:39:59.071Z,100370.84
2022-11-16T02:42:51.410Z,100367.91
2022-11-16T02:45:24.974Z,100359.78
2022-11-16T02:47:55.455Z,100355.78
2022-11-16T02:50:23.442Z,100356.00
2022-11-16T02:52:50.009Z,100351.22
2022-11-16T02:55:16.861Z,100355.59
2022-11-16T02:57:59.145Z,100345.19
2022-11-16T03:00:36.067Z,100345.19
2022-11-16T03:03:16.535Z,100343.31
2022-11-16T03:05:52.448Z,100332.03
2022-11-16T03:08:18.974Z,100331.66
2022-11-16T03:11:09.163Z,100338.06
2022-11-16T03:13:38.078Z,100333.91
2022-11-16T03:16:10.220Z,100330.38
2022-11-16T03:18:39.564Z,100343.25
2022-11-16T03:21:16.572Z,100354.69
2022-11-16T03:23:45.129Z,100352.41
2022-11-16T03:26:15.119Z,100343.63
2022-11-16T03:29:03.260Z,100346.75
2022-11-16T03:31:35.088Z,100345.25
2022-11-16T03:34:09.031Z,100340.25
2022-11-16T03:36:41.076Z,100339.59
2022-11-16T03:39:12.657Z,100346.25
2022-11-16T03:41:42.738Z,100337.94
2022-11-16T03:44:12.213Z,100336.47
2022-11-16T03:46:39.980Z,100345.00
2022-11-16T03:49:06.733Z,100331.47
2022-11-16T03:51:33.642Z,100327.94
2022-11-16T03:54:00.321Z,100322.94
2022-11-16T03:56:27.054Z,100327.91
2022-11-16T03:58:53.687Z,100330.59
2022-11-16T04:01:20.317Z,100323.53
2022-11-16T04:03:46.915Z,100325.81
2022-11-16T04:06:32.064Z,100326.22
2022-11-16T04:09:17.430Z,100327.25
2022-11-16T04:12:02.786Z,100329.97
2022-11-16T04:14:48.017Z,100330.13
2022-11-16T04:17:35.612Z,100328.47
2022-11-16T04:20:21.011Z,100321.59
2022-11-16T04:23:12.790Z,100319.31
2022-11-16T04:25:41.804Z,100310.38
2022-11-16T04:28:14.862Z,100306.44
2022-11-16T04:31:31.367Z,100315.56
2022-11-16T04:34:16.695Z,100310.38
2022-11-16T04:37:01.801Z,100311.41
2022-11-16T04:39:28.379Z,100311.59
2022-11-16T04:42:13.483Z,100307.88
2022-11-16T04:44:58.751Z,100301.63
2022-11-16T04:47:25.283Z,100311.59
2022-11-16T04:49:51.846Z,100306.84
2022-11-16T04:52:18.415Z,100307.66
2022-11-16T04:54:44.962Z,100302.25
2022-11-16T04:57:11.529Z,100303.50
2022-11-16T04:59:38.094Z,100297.91
2022-11-16T05:02:10.788Z,100299.34
2022-11-16T05:04:39.955Z,100300.41
2022-11-16T05:07:13.188Z,100300.41
2022-11-16T05:09:43.101Z,100300.19
2022-11-16T05:12:11.471Z,100297.69
2022-11-16T05:14:38.054Z,100298.31
2022-11-16T05:17:04.641Z,100297.69
2022-11-16T05:19:50.114Z,100306.63
2022-11-16T05:22:16.656Z,100298.72
2022-11-16T05:24:43.336Z,100289.59
2022-11-16T05:27:12.844Z,100293.53
2022-11-16T05:29:39.763Z,100291.88
2022-11-16T05:32:07.582Z,100296.41
2022-11-16T05:34:34.480Z,100298.94
2022-11-16T05:37:01.102Z,100293.91
2022-11-16T05:39:27.877Z,100304.09
2022-11-16T05:41:54.792Z,100297.00
2022-11-16T05:44:21.545Z,100302.22
2022-11-16T05:46:49.165Z,100302.00
2022-11-16T05:49:15.923Z,100302.41
2022-11-16T05:51:44.784Z,100307.63
2022-11-16T05:54:13.610Z,100304.91
2022-11-16T05:56:40.480Z,100316.34
2022-11-16T05:59:11.260Z,100315.50
2022-11-16T06:01:42.255Z,100319.22
2022-11-16T06:04:09.435Z,100318.63
2022-11-16T06:06:36.253Z,100317.59
2022-11-16T06:09:03.333Z,100319.25
2022-11-16T06:11:34.423Z,100319.06
2022-11-16T06:14:02.449Z,100318.41
2022-11-16T06:16:29.121Z,100315.31
2022-11-16T06:18:55.688Z,100323.25
2022-11-16T06:21:22.261Z,100313.28
2022-11-16T06:23:48.877Z,100316.63
2022-11-16T06:26:15.512Z,100319.31
2022-11-16T06:28:42.120Z,100320.56
2022-11-16T06:31:08.840Z,100310.78
2022-11-16T06:33:35.562Z,100312.25
2022-11-16T06:36:02.193Z,100312.03
2022-11-16T06:38:28.837Z,100318.88
2022-11-16T06:40:57.587Z,100318.00
2022-11-16T06:43:25.758Z,100313.03
2022-11-16T06:45:55.386Z,100308.44
2022-11-16T06:48:22.456Z,100317.78
2022-11-16T06:50:50.067Z,100320.69
2022-11-16T06:53:17.027Z,100316.13
2022-11-16T06:55:43.843Z,100319.66
2022-11-16T06:58:10.521Z,100316.75
2022-11-16T07:00:37.284Z,100316.75
2022-11-16T07:03:04.500Z,100317.16
2022-11-16T07:05:32.303Z,100317.16
2022-11-16T07:07:59.269Z,100321.72
2022-11-16T07:10:26.691Z,100319.22
2022-11-16T07:12:53.365Z,100321.94
2022-11-16T07:15:20.127Z,100316.53
2022-11-16T07:17:47.059Z,100325.91
2022-11-16T07:20:13.770Z,100332.56
2022-11-16T07:22:41.246Z,100336.31
2022-11-16T07:25:08.451Z,100340.88
2022-11-16T07:27:35.098Z,100343.81
2022-11-16T07:30:02.256Z,100336.19
2022-11-16T07:32:30.911Z,100343.91
2022-11-16T07:34:59.373Z,100344.72
2022-11-16T07:37:26.336Z,100349.31
2022-11-16T07:39:52.986Z,100346.81
2022-11-16T07:42:19.714Z,100342.59
2022-11-16T07:44:46.348Z,100336.38
2022-11-16T07:47:13.101Z,100330.59
2022-11-16T07:49:39.798Z,100337.66
2022-11-16T07:52:09.698Z,100340.56
2022-11-16T07:54:36.961Z,100340.38
2022-11-16T07:57:03.704Z,100341.78
2022-11-16T07:59:30.284Z,100341.59
2022-11-16T08:01:57.180Z,100345.13
2022-11-16T08:04:23.827Z,100339.28
2022-11-16T08:06:51.862Z,100341.56
2022-11-16T08:09:18.685Z,100346.56
2022-11-16T08:11:45.340Z,100339.69
2022-11-16T08:14:12.027Z,100338.22
2022-11-16T08:16:38.708Z,100340.91
2022-11-16T08:19:05.314Z,100343.19
2022-11-16T08:21:31.901Z,100346.72
2022-11-16T08:23:59.064Z,100350.44
2022-11-16T08:26:26.225Z,100337.97
2022-11-16T08:28:53.913Z,100334.22
2022-11-16T08:31:24.160Z,100334.22
2022-11-16T08:33:51.939Z,100335.47
2022-11-16T08:36:19.235Z,100338.38
2022-11-16T08:38:48.122Z,100334.00
2022-11-16T08:41:15.964Z,100337.94
2022-11-16T08:43:44.608Z,100337.09
2022-11-16T08:46:11.764Z,100332.34
2022-11-16T08:48:39.107Z,100325.28
2022-11-16T08:51:20.402Z,100327.97
2022-11-16T08:53:49.134Z,100320.69
2022-11-16T08:56:17.545Z,100316.34
2022-11-16T08:58:47.135Z,100318.19
2022-11-16T09:01:19.358Z,100311.75
2022-11-16T09:03:46.679Z,100313.84
2022-11-16T09:06:14.233Z,100316.75
2022-11-16T09:08:42.939Z,100309.69
2022-11-16T09:11:12.778Z,100309.91
2022-11-16T09:13:39.695Z,100308.25
2022-11-16T09:16:06.454Z,100308.44
2022-11-16T09:18:34.786Z,100301.19
2022-11-16T09:21:01.711Z,100300.53
2022-11-16T09:23:28.318Z,100291.41
2022-11-16T09:25:54.878Z,100286.84
2022-11-16T09:28:22.154Z,100299.31
2022-11-16T09:30:51.386Z,100297.84
2022-11-16T09:33:18.600Z,100295.97
2022-11-16T09:35:45.431Z,100296.81
2022-11-16T09:38:17.491Z,100291.41
2022-11-16T09:40:48.751Z,100292.84
2022-11-16T09:43:18.068Z,100290.16
2022-11-16T09:45:58.515Z,100289.31
2022-11-16T09:48:25.519Z,100290.34
2022-11-16T09:50:57.280Z,100287.66
2022-11-16T09:53:27.220Z,100285.16
2022-11-16T09:55:58.476Z,100274.78
2022-11-16T09:58:53.879Z,100275.59
2022-11-16T10:01:32.124Z,100274.16
2022-11-16T10:04:06.576Z,100276.00
2022-11-16T10:06:46.056Z,100275.81
2022-11-16T10:09:13.388Z,100275.34
2022-11-16T10:11:52.539Z,100278.91
2022-11-16T10:14:43.505Z,100268.50
2022-11-16T10:17:53.283Z,100267.03
2022-11-16T10:21:00.355Z,100269.09
2022-11-16T10:23:40.515Z,100271.16
2022-11-16T10:26:29.377Z,100272.84
2022-11-16T10:29:12.738Z,100275.94
2022-11-16T10:31:59.483Z,100266.34
2022-11-16T10:34:33.660Z,100259.75
2022-11-16T10:37:03.929Z,100270.75
2022-11-16T10:39:32.471Z,100265.38
2022-11-16T10:42:07.283Z,100258.50
2022-11-16T10:45:11.315Z,100256.84
2022-11-16T10:47:51.226Z,100251.44
2022-11-16T10:50:32.570Z,100258.31
2022-11-16T10:53:00.753Z,100249.38
2022-11-16T10:55:30.683Z,100241.94
2022-11-16T10:58:05.605Z,100235.50
2022-11-16T11:00:47.766Z,100239.84
2022-11-16T11:03:28.996Z,100240.22
2022-11-16T11:05:55.649Z,100250.22
2022-11-16T11:08:30.673Z,100247.72
2022-11-16T11:11:23.975Z,100243.34
2022-11-16T11:14:05.038Z,100238.97
2022-11-16T11:16:31.809Z,100234.41
2022-11-16T11:19:17.852Z,100225.28
2022-11-16T11:21:45.213Z,100223.41
2022-11-16T11:24:43.491Z,100217.78
2022-11-16T11:27:05.694Z,100218.41
2022-11-16T11:29:37.540Z,100221.09
2022-11-16T11:32:07.167Z,100222.34
2022-11-16T11:34:54.652Z,100223.19
2022-11-16T11:37:26.083Z,100232.31
2022-11-16T11:40:25.989Z,100236.91
2022-11-16T11:42:58.415Z,100236.06
2022-11-16T11:45:49.496Z,100235.66
2022-11-16T11:48:41.306Z,100229.41
2022-11-16T11:51:29.348Z,100233.16
2022-11-16T11:54:00.812Z,100230.25
2022-11-16T11:56:30.682Z,100230.25
2022-11-16T11:58:57.577Z,100232.94
2022-11-16T12:01:40.014Z,100235.25
2022-11-16T12:04:28.570Z,100222.78
2022-11-16T12:07:02.985Z,100230.66
2022-11-16T12:09:52.835Z,100233.56
2022-11-16T12:13:01.224Z,100235.66
2022-11-16T12:15:45.812Z,100236.06
2022-11-16T12:18:32.757Z,100241.69
2022-11-16T12:21:05.390Z,100230.72
2022-11-16T12:23:52.941Z,100234.47
2022-11-16T12:26:44.941Z,100232.72
2022-11-16T12:29:11.468Z,100235.47
2022-11-16T12:32:12.116Z,100241.06
2022-11-16T12:35:03.603Z,100241.53
2022-11-16T12:37:51.858Z,100230.94
2022-11-16T12:40:32.925Z,100232.81
2022-11-16T12:43:07.854Z,100231.13
2022-11-16T12:46:10.308Z,100232.19
2022-11-16T12:48:45.952Z,100226.78
2022-11-16T12:51:32.349Z,100232.59
2022-11-16T12:54:27.849Z,100229.06
2022-11-16T12:57:22.600Z,100227.38
2022-11-16T13:00:04.974Z,100226.72
2022-11-16T13:02:34.246Z,100226.94
2022-11-16T13:05:28.498Z,100224.44
2022-11-16T13:08:02.533Z,100218.63
2022-11-16T13:10:38.900Z,100224.84
2022-11-16T13:13:35.513Z,100225.25
2022-11-16T13:16:02.128Z,100230.88
2022-11-16T13:18:30.349Z,100226.66
2022-11-16T13:21:29.128Z,100222.31
2022-11-16T13:24:46.173Z,100218.97
2022-11-16T13:27:30.723Z,100214.81
2022-11-16T13:30:23.389Z,100207.75
2022-11-16T13:33:19.838Z,100211.06
2022-11-16T13:35:46.424Z,100210.25
2022-11-16T13:38:13.583Z,100208.81
2022-11-16T13:40:41.267Z,100213.16
2022-11-16T13:43:10.898Z,100209.44
2022-11-16T13:45:37.473Z,100205.91
2022-11-16T13:48:14.470Z,100201.97
2022-11-16T13:50:49.309Z,100204.69
2022-11-16T13:56:28.666Z,100206.56
2022-11-16T13:58:57.403Z,100195.75
2022-11-16T14:01:24.319Z,100200.94
2022-11-16T14:03:52.798Z,100198.25
2022-11-16T14:06:19.317Z,100195.53
2022-11-16T14:08:59.218Z,100202.41
2022-11-16T14:11:31.977Z,100205.94
2022-11-16T14:14:01.496Z,100205.31
2022-11-16T14:16:29.099Z,100193.69
2022-11-16T14:18:59.055Z,100197.41
2022-11-16T14:21:26.820Z,100195.75
2022-11-16T14:23:56.192Z,100195.94
2022-11-16T14:26:22.733Z,100188.66
2022-11-16T14:29:07.228Z,100192.22
2022-11-16T14:31:57.513Z,100187.81
2022-11-16T14:34:46.724Z,100191.56
2022-11-16T14:37:28.532Z,100186.81
2022-11-16T14:40:19.455Z,100185.31
2022-11-16T14:43:16.060Z,100192.41
2022-11-16T14:45:51.701Z,100196.97
2022-11-16T14:48:20.857Z,100185.31
2022-11-16T14:51:02.357Z,100192.84
2022-11-16T14:53:30.563Z,100187.44
2022-11-16T14:56:26.781Z,100180.16
2022-11-16T14:58:58.946Z,100192.00
2022-11-16T15:01:35.759Z,100184.94
2022-11-16T15:04:10.371Z,100193.22
2022-11-16T15:06:57.776Z,100187.44
2022-11-16T15:09:34.781Z,100180.38
2022-11-16T15:12:25.242Z,100172.44
2022-11-16T15:14:54.752Z,100173.94
2022-11-16T15:17:27.232Z,100175.41
2022-11-16T15:19:59.327Z,100177.69
2022-11-16T15:22:39.404Z,100178.31
2022-11-16T15:25:22.543Z,100186.63
2022-11-16T15:27:49.118Z,100187.44
2022-11-16T15:30:20.524Z,100192.84
2022-11-16T15:32:49.086Z,100191.81
2022-11-16T15:35:20.198Z,100185.38
2022-11-16T15:37:46.891Z,100185.56
2022-11-16T15:40:14.621Z,100183.72
2022-11-16T15:42:42.047Z,100185.78
2022-11-16T15:45:25.821Z,100184.75
2022-11-16T15:47:54.023Z,100185.78
2022-11-16T15:50:23.335Z,100182.88
2022-11-16T15:52:55.241Z,100189.09
2022-11-16T15:55:33.330Z,100178.84
2022-11-16T15:58:11.933Z,100186.81
2022-11-16T16:00:38.709Z,100181.00
2022-11-16T16:03:20.216Z,100182.06
2022-11-16T16:05:46.939Z,100185.59
2022-11-16T16:08:42.526Z,100181.66
2022-11-16T16:11:11.531Z,100186.66
2022-11-16T16:13:39.646Z,100178.56
2022-11-16T16:16:36.285Z,100177.53
2022-11-16T16:19:30.968Z,100165.88
2022-11-16T16:21:59.505Z,100171.91
2022-11-16T16:24:42.797Z,100176.28
2022-11-16T16:27:10.660Z,100179.19
2022-11-16T16:29:37.196Z,100175.03
2022-11-16T16:32:04.030Z,100178.34
2022-11-16T16:34:30.573Z,100177.72
2022-11-16T16:36:57.259Z,100171.69
2022-11-16T16:39:23.824Z,100181.00
2022-11-16T16:41:50.384Z,100185.59
2022-11-16T16:44:16.951Z,100186.63
2022-11-16T16:46:43.524Z,100182.06
2022-11-16T16:49:10.591Z,100189.09
2022-11-16T16:51:37.191Z,100187.03
2022-11-16T16:54:03.873Z,100189.94
2022-11-16T16:56:30.476Z,100177.47
2022-11-16T16:58:57.018Z,100180.38
2022-11-16T17:01:23.639Z,100178.50
2022-11-16T17:03:50.239Z,100178.25
2022-11-16T17:06:17.055Z,100180.16
2022-11-16T17:08:43.595Z,100186.63
2022-11-16T17:11:12.300Z,100184.97
2022-11-16T17:13:38.843Z,100194.31
2022-11-16T17:16:05.988Z,100187.06
2022-11-16T17:18:32.578Z,100191.22
2022-11-16T17:21:05.129Z,100192.47
2022-11-16T17:23:32.205Z,100183.13
2022-11-16T17:25:58.917Z,100184.63
2022-11-16T17:28:25.482Z,100171.28
2022-11-16T17:30:52.040Z,100177.09
2022-11-16T17:33:18.616Z,100174.63
2022-11-16T17:35:55.035Z,100177.16
2022-11-16T17:38:21.591Z,100183.59
2022-11-16T17:40:48.163Z,100181.72
2022-11-16T17:43:14.765Z,100187.53
2022-11-16T17:45:41.428Z,100183.38
2022-11-16T17:48:08.176Z,100190.44
2022-11-16T17:50:34.774Z,100192.16
2022-11-16T17:53:01.364Z,100192.31
2022-11-16T17:55:28.892Z,100193.78
2022-11-16T17:57:56.481Z,100196.25
2022-11-16T18:00:23.167Z,100196.44
2022-11-16T18:02:49.762Z,100197.09
2022-11-16T18:05:16.372Z,100195.44
2022-11-16T18:07:42.972Z,100192.53
2022-11-16T18:10:11.077Z,100183.38
2022-11-16T18:12:39.321Z,100186.66
2022-11-16T18:15:27.339Z,100186.66
2022-11-16T18:17:52.739Z,100183.13
2022-11-16T18:20:19.489Z,100192.06
2022-11-16T18:22:46.222Z,100193.09
2022-11-16T18:25:12.767Z,100196.00
2022-11-16T18:27:39.353Z,100195.34
2022-11-16T18:30:08.269Z,100198.06
2022-11-16T18:32:36.366Z,100191.41
2022-11-16T18:35:04.719Z,100191.59
2022-11-16T18:37:31.258Z,100195.94
2022-11-16T18:39:57.824Z,100193.22
2022-11-16T18:42:24.362Z,100183.72
2022-11-16T18:44:51.352Z,100190.16
2022-11-16T18:47:17.911Z,100187.81
2022-11-16T18:49:44.469Z,100185.78
2022-11-16T18:52:11.129Z,100188.06
2022-11-16T18:54:38.066Z,100183.72
2022-11-16T18:57:04.653Z,100188.91
2022-11-16T18:59:31.195Z,100189.94
2022-11-16T19:01:57.806Z,100193.06
2022-11-16T19:04:24.742Z,100193.69
2022-11-16T19:06:51.325Z,100191.59
2022-11-16T19:09:17.990Z,100192.44
2022-11-16T19:11:44.741Z,100188.28
2022-11-16T19:14:11.385Z,100185.78
2022-11-16T19:16:41.861Z,100188.28
2022-11-16T19:19:11.903Z,100190.34
2022-11-16T19:21:39.905Z,100189.94
2022-11-16T19:24:07.003Z,100180.81
2022-11-16T19:26:33.571Z,100185.38
2022-11-16T19:29:02.102Z,100182.03
2022-11-16T19:31:30.076Z,100166.66
2022-11-16T19:33:59.227Z,100181.00
2022-11-16T19:36:27.542Z,100184.34
2022-11-16T19:38:54.845Z,100188.28
2022-11-16T19:41:22.514Z,100180.59
2022-11-16T19:43:52.488Z,100176.44
2022-11-16T19:46:24.230Z,100180.81
2022-11-16T19:48:51.319Z,100179.75
2022-11-16T19:51:20.411Z,100184.34
2022-11-16T19:53:47.119Z,100187.88
2022-11-16T19:56:16.750Z,100192.63
2022-11-16T19:58:43.940Z,100203.25
2022-11-16T20:01:13.794Z,100202.19
2022-11-16T20:03:41.868Z,100200.75
2022-11-16T20:06:17.390Z,100203.88
2022-11-16T20:08:48.783Z,100212.19
2022-11-16T20:11:18.141Z,100210.31
2022-11-16T20:13:44.681Z,100205.94
2022-11-16T20:16:13.178Z,100209.69
2022-11-16T20:18:41.528Z,100210.91
2022-11-16T20:21:11.611Z,100205.09
2022-11-16T20:23:38.242Z,100212.78
2022-11-16T20:26:06.018Z,100213.16
2022-11-16T20:28:40.860Z,100207.38
2022-11-16T20:31:13.271Z,100211.13
2022-11-16T20:33:40.075Z,100215.66
2022-11-16T20:36:11.191Z,100216.91
2022-11-16T20:38:39.265Z,100215.88
2022-11-16T20:41:17.624Z,100223.13
2022-11-16T20:43:45.350Z,100219.22
2022-11-16T20:46:14.796Z,100222.34
2022-11-16T20:48:42.774Z,100221.94
2022-11-16T20:51:11.948Z,100212.97
2022-11-16T20:53:38.645Z,100224.78
2022-11-16T20:56:07.540Z,100208.41
2022-11-16T20:58:35.116Z,100212.78
2022-11-16T21:01:28.612Z,100210.09
2022-11-16T21:03:56.336Z,100216.91
2022-11-16T21:06:23.089Z,100204.69
2022-11-16T21:08:49.713Z,100204.84
2022-11-16T21:11:19.019Z,100203.66
2022-11-16T21:14:04.981Z,100195.53
2022-11-16T21:16:32.381Z,100203.84
2022-11-16T21:18:59.109Z,100206.94
2022-11-16T21:21:26.077Z,100202.16
2022-11-16T21:23:53.678Z,100209.25
2022-11-16T21:26:23.632Z,100205.72
2022-11-16T21:28:50.243Z,100210.47
2022-11-16T21:31:19.527Z,100209.44
2022-11-16T21:33:47.420Z,100199.28
2022-11-16T21:36:16.418Z,100207.75
2022-11-16T21:38:43.626Z,100210.47
2022-11-16T21:41:15.496Z,100212.13
2022-11-16T21:43:42.494Z,100210.25
2022-11-16T21:46:19.868Z,100220.22
2022-11-16T21:48:51.162Z,100214.59
2022-11-16T21:51:19.473Z,100213.38
2022-11-16T21:53:46.318Z,100212.34
2022-11-16T21:56:17.981Z,100208.16
2022-11-16T21:58:45.284Z,100206.50
2022-11-16T22:01:13.230Z,100207.34
2022-11-16T22:03:39.907Z,100210.25
2022-11-16T22:06:26.247Z,100200.69
2022-11-16T22:08:52.973Z,100207.53
2022-11-16T22:11:22.163Z,100200.47
2022-11-16T22:13:49.420Z,100205.69
2022-11-16T22:16:17.232Z,100199.25
2022-11-16T22:18:43.851Z,100209.84
2022-11-16T22:21:11.043Z,100201.53
2022-11-16T22:23:38.579Z,100205.47
2022-11-16T22:26:10.345Z,100214.00
2022-11-16T22:28:37.610Z,100208.81
2022-11-16T22:31:10.585Z,100201.53
2022-11-16T22:33:37.995Z,100203.81
2022-11-16T22:36:05.508Z,100207.97
2022-11-16T22:38:33.328Z,100204.44
2022-11-16T22:40:59.897Z,100201.72
2022-11-16T22:43:28.424Z,100196.53
2022-11-16T22:46:04.335Z,100197.38
2022-11-16T22:48:33.063Z,100197.78
2022-11-16T22:51:04.361Z,100196.13
2022-11-16T22:53:31.038Z,100184.91
2022-11-16T22:56:03.874Z,100186.16
2022-11-16T22:58:30.451Z,100187.00
2022-11-16T23:00:57.000Z,100190.97
2022-11-16T23:03:23.580Z,100189.09
2022-11-16T23:05:50.187Z,100190.34
2022-11-16T23:08:16.873Z,100186.41
2022-11-16T23:11:02.012Z,100187.25
2022-11-16T23:13:47.058Z,100178.53
2022-11-16T23:16:13.605Z,100178.09
2022-11-16T23:18:40.135Z,100188.75
2022-11-16T23:21:42.299Z,100181.47
2022-11-16T23:24:31.790Z,100187.50
2022-11-16T23:27:19.133Z,100180.00
2022-11-16T23:29:45.828Z,100178.56
2022-11-16T23:32:12.403Z,100169.84
2022-11-16T23:34:38.946Z,100180.44
2022-11-16T23:37:06.821Z,100172.53
2022-11-16T23:39:33.842Z,100167.13
2022-11-16T23:42:19.120Z,100171.28
2022-11-16T23:44:45.702Z,100161.72
2022-11-16T23:47:12.297Z,100154.66
2022-11-16T23:49:38.842Z,100159.84
2022-11-16T23:52:05.403Z,100162.34
2022-11-16T23:54:31.949Z,100157.16
2022-11-16T23:56:58.655Z,100158.81
2022-11-16T23:59:25.183Z,100159.03
